Aérodrome :
LOGIN :

S'inscrire | Disclaimer

   EN    FR    IT 

 










Légende :    VFR   VFR Marginal   IFR   IFR Intensif   IFR Très Intensif
Visi : 
Plafond : 
>= 8 km
>= 3000ft
5 à 8 km
1000 à 3000 ft
1500m à 5 km
500 à 1000 ft
800 à 1500m
200 à 500 ft
< 800m
< 200 ft
Symboles :   Orages  Brouillard  Fortes neiges  Fortes précipitations  Vent > 20 kt
SIGMETs :   Divers  Orages  Givrage  Turbulence  Onde Orograph.  Cendres Volcan.







- Altitude de l'aérodrome : 1234 ft
- Code IATA : LUX


ELLX - Luxembourg Findel

DERNIER METAR :
  • 231620Z 07005KT 9999 FEW030 17/11 Q1021 NOSIG

METARs EXPIRÉS :
  • 231550Z 08004KT 040V130 9999 FEW034 18/09 Q1022 NOSIG
  • 231520Z 07003KT 9999 FEW033 17/11 Q1022 NOSIG
  • 231450Z 04007KT 9999 FEW037 18/10 Q1022 NOSIG
  • 231420Z 08004KT 030V140 9999 FEW034 18/10 Q1022 NOSIG
  • 231350Z 07005KT 020V140 9999 FEW032 18/11 Q1022 NOSIG
  • 231320Z 06005KT 010V100 9999 FEW026 18/11 Q1023 NOSIG

TAF TAF ELLX
Valide du 23 à 12h jusqu'au 24 à 18h UTC


231100Z 2312/2418 06008KT 9999 SCT025
TEMPO 2403/2410 VRB03KT 3000 BR SCT002
ATIS : +352 4798 27300
Météo : +352 4798 27010 / 27050
Pas de NOTAMs connus pour ce terrain.



MET'MAP, la Météo Aéronautique d'un coup d'oeil ! - Copyright ORBIFLY Décembre 2007 - Disclaimer

ORBIFLY MET'MAP TEAM :

Programmation & Développement : Alexandra Zaïnal
Conception & Développement : Baudouin d'Aumeries
Co-Programmation & Développement : Marc-Olivier Méhu
Soutien technique & logistique : Manuel Goepfert

Contact : metmap@orbifly.com




SOURCES & CREDITS :

   NOAA